Glen Allen, Virginia
Current Conditions -  °F | °C
As of 11:54 PM on Wednesday 22 Oct 2014 (Local Time) from KOFP Reporting Station
Broken Clouds Broken Clouds  
Wind Chill: 52°   Ceiling: 3800
Heat Index: 52°   Visibility: 10mi
Dew Point: 42°   Wind: 12mph
Humidity: 69%   Direction: 320°NW
Pressure: 29.97"   Gusts: 21mph
Location:  37.67°N, 77.5°W
Report Text: KOFP 230354Z AUTO 32010G18KT 10SM BKN038 11/06 A2997 RMK AO2 SLP149 T01110056
Loading
Personal Weather Stations






























Interactive Weather Map
Tropical Storm Tracking
New forecast layout! Learn more

10-Day Weather Forecast

Advertisements
Track Severe Weather on mobile